Maribel — LAGU6 — position and weather

sailwx.info

Track history (hours):
 
Tides and Currents Weather Stations Pressure Air Temp Water Temp Dewpoint Dewpoint Depression Visibility Wind Speed Wind Dir Waves Ship Positions

Maribel

Last reported at 2017-Jul-15 21:08 UTC. Time now 2017-Jul-21 20:41 UTC.
Position N 19°23' W 018°18'.

Length 229 m; draft 12.5 m.

Type: Tanker. MMSI: 257872000.

Date/timePositionNaut miles runAvg speedWind from/ knotsBaromVisibWave heightAir tempDewpointWater temp
2017-Jul-15 21:08N 19°23' W 018°18'212.5
2017-Jul-15 20:58N 19°25' W 018°18'41312.1
2017-Jul-14 10:54N 25°59' W 016°05'2011.8
2017-Jul-14 09:11N 26°18' W 015°56'212.0
2017-Jul-14 09:00N 26°20' W 015°55'1212.1
2017-Jul-14 08:01N 26°31' W 015°49'512.4
2017-Jul-14 07:34N 26°36' W 015°47'1412.5
2017-Jul-14 06:26N 26°48' W 015°40'712.5
2017-Jul-14 05:53N 26°55' W 015°37'512.6
2017-Jul-14 05:28N 26°59' W 015°34'612.9
2017-Jul-14 05:00N 27°05' W 015°31'713.0
2017-Jul-14 04:30N 27°11' W 015°28'713.0
2017-Jul-14 04:00N 27°17' W 015°25'613.1
2017-Jul-14 03:30N 27°23' W 015°22'1213.4
2017-Jul-14 02:38N 27°33' W 015°17'213.3
2017-Jul-14 02:30N 27°35' W 015°16'713.2
2017-Jul-14 02:00N 27°41' W 015°13'713.3
2017-Jul-14 01:30N 27°47' W 015°10'713.2
2017-Jul-14 01:00N 27°53' W 015°07'613.0
2017-Jul-14 00:30N 27°59' W 015°04'612.9
2017-Jul-14 00:00N 28°05' W 015°01'612.8
2017-Jul-13 23:30N 28°11' W 014°59'612.7
2017-Jul-13 23:00N 28°17' W 014°57'612.7
2017-Jul-13 22:30N 28°23' W 014°55'612.8
2017-Jul-13 22:00N 28°29' W 014°53'612.9
2017-Jul-13 21:30N 28°36' W 014°52'712.7
2017-Jul-13 20:55N 28°43' W 014°49'512.6
2017-Jul-13 20:30N 28°48' W 014°48'612.5
2017-Jul-13 20:00N 28°54' W 014°46'612.4
2017-Jul-13 19:30N 28°60' W 014°44'612.5
2017-Jul-13 19:00N 29°06' W 014°43'612.2
2017-Jul-13 18:30N 29°12' W 014°41'611.9
2017-Jul-13 18:00N 29°18' W 014°39'611.8
2017-Jul-13 17:30N 29°23' W 014°38'611.8
2017-Jul-13 17:00N 29°29' W 014°36'612.0
2017-Jul-13 16:30N 29°35' W 014°35'612.1
2017-Jul-13 16:00N 29°41' W 014°33'712.2
2017-Jul-13 15:27N 29°48' W 014°31'712.4
2017-Jul-13 14:55N 29°54' W 014°30'512.4
2017-Jul-13 14:29N 29°59' W 014°28'612.4
2017-Jul-13 13:59N 30°05' W 014°26'5012.5
2017-Jul-13 10:00N 30°54' W 014°13'1112.4
2017-Jul-13 09:08N 31°04' W 014°10'212.6
2017-Jul-13 08:57N 31°06' W 014°10'612.6
2017-Jul-13 08:30N 31°12' W 014°08'1012.4
2017-Jul-13 07:42N 31°22' W 014°05'212.5
2017-Jul-13 07:30N 31°24' W 014°05'612.5
2017-Jul-13 07:00N 31°30' W 014°03'1112.4
2017-Jul-13 06:07N 31°41' W 014°00'312.6
2017-Jul-13 05:55N 31°43' W 013°59'512.6
2017-Jul-13 05:30N 31°48' W 013°58'712.6
2017-Jul-13 04:57N 31°55' W 013°56'712.7
2017-Jul-13 04:25N 32°02' W 013°55'612.5
2017-Jul-13 03:56N 32°08' W 013°53'512.5
2017-Jul-13 03:30N 32°13' W 013°52'712.6
2017-Jul-13 02:59N 32°19' W 013°50'812.7
2017-Jul-13 02:20N 32°27' W 013°48'612.8
2017-Jul-13 01:55N 32°32' W 013°46'512.7
2017-Jul-13 01:30N 32°37' W 013°45'612.8
2017-Jul-13 01:00N 32°44' W 013°43'1312.8
2017-Jul-13 00:00N 32°56' W 013°39'612.8
2017-Jul-12 23:30N 33°02' W 013°38'712.7
2017-Jul-12 22:58N 33°09' W 013°36'1212.5
2017-Jul-12 22:01N 33°20' W 013°32'012.2
2017-Jul-12 22:00N 33°21' W 013°32'612.6
2017-Jul-12 21:30N 33°27' W 013°30'612.6
2017-Jul-12 21:00N 33°33' W 013°28'612.5
2017-Jul-12 20:30N 33°39' W 013°27'712.6
2017-Jul-12 19:56N 33°46' W 013°25'712.5
2017-Jul-12 19:24N 33°52' W 013°23'712.5
2017-Jul-12 18:52N 33°59' W 013°21'512.6
2017-Jul-12 18:28N 34°04' W 013°20'612.5
2017-Jul-12 18:00N 34°09' W 013°18'712.4
2017-Jul-12 17:28N 34°16' W 013°16'612.5
2017-Jul-12 17:00N 34°22' W 013°15'712.6
2017-Jul-12 16:29N 34°28' W 013°13'612.7
2017-Jul-12 15:59N 34°34' W 013°11'612.6
2017-Jul-12 15:29N 34°40' W 013°09'712.6
2017-Jul-12 14:58N 34°47' W 013°08'1312.6
2017-Jul-12 13:55N 34°59' W 013°04'512.5
2017-Jul-12 13:29N 35°05' W 013°02'1512.3
2017-Jul-12 12:17N 35°19' W 012°58'512.8
2017-Jul-12 11:55N 35°24' W 012°57'512.9
2017-Jul-12 11:30N 35°29' W 012°55'612.8
2017-Jul-12 10:59N 35°35' W 012°53'712.7
2017-Jul-12 10:27N 35°42' W 012°51'612.8
2017-Jul-12 09:59N 35°48' W 012°49'16712.9
2017-Jul-11 20:59N 38°30' W 012°01'812.6
2017-Jul-11 20:19N 38°39' W 011°58'412.6
2017-Jul-11 20:00N 38°42' W 011°57'612.8
2017-Jul-11 19:30N 38°49' W 011°55'712.9
2017-Jul-11 18:59N 38°55' W 011°53'613.0
2017-Jul-11 18:30N 39°01' W 011°51'1013.3
2017-Jul-11 17:45N 39°11' W 011°49'313.1
2017-Jul-11 17:30N 39°14' W 011°48'712.7
2017-Jul-11 16:59N 39°21' W 011°46'612.7
2017-Jul-11 16:30N 39°26' W 011°44'812.7
2017-Jul-11 15:50N 39°35' W 011°41'412.7
2017-Jul-11 15:30N 39°39' W 011°40'712.7
2017-Jul-11 15:00N 39°45' W 011°38'6012.8
2017-Jul-11 10:18N 40°44' W 011°20'1412.9
2017-Jul-11 09:13N 40°57' W 011°16'50712.6
2017-Jul-09 16:52N 48°33' W 006°03'412.0
2017-Jul-09 16:30N 48°37' W 006°01'611.8
2017-Jul-09 15:59N 48°42' W 005°56'611.8
2017-Jul-09 15:29N 48°47' W 005°52'611.6
2017-Jul-09 15:00N 48°52' W 005°49'611.3
2017-Jul-09 14:30N 48°57' W 005°43'611.7
2017-Jul-09 13:59N 48°60' W 005°35'612.2
2017-Jul-09 13:30N 49°03' W 005°28'612.0
2017-Jul-09 12:58N 49°07' W 005°19'711.8
2017-Jul-09 12:23N 49°11' W 005°11'512.8
2017-Jul-09 12:00N 49°13' W 005°05'713.8
2017-Jul-09 11:30N 49°17' W 004°56'814.0
2017-Jul-09 10:57N 49°21' W 004°45'614.1
2017-Jul-09 10:30N 49°24' W 004°37'913.8
2017-Jul-09 09:50N 49°28' W 004°24'513.5
2017-Jul-09 09:26N 49°31' W 004°17'613.3
2017-Jul-09 08:58N 49°34' W 004°09'612.8
2017-Jul-09 08:30N 49°37' W 004°01'612.4
2017-Jul-09 08:00N 49°40' W 003°53'612.0
2017-Jul-09 07:30N 49°43' W 003°44'611.6
2017-Jul-09 07:00N 49°46' W 003°37'611.3
2017-Jul-09 06:30N 49°48' W 003°29'611.2
2017-Jul-09 06:00N 49°51' W 003°21'611.4
2017-Jul-09 05:30N 49°53' W 003°13'611.9
2017-Jul-09 05:00N 49°56' W 003°05'612.5
2017-Jul-09 04:30N 49°58' W 002°56'612.8
2017-Jul-09 04:00N 49°60' W 002°46'713.5
2017-Jul-09 03:31N 50°02' W 002°36'714.3
2017-Jul-09 03:01N 50°04' W 002°26'815.1
2017-Jul-09 02:30N 50°06' W 002°14'815.7
2017-Jul-09 02:00N 50°09' W 002°03'815.9
2017-Jul-09 01:30N 50°11' W 001°51'1415.6
2017-Jul-09 00:37N 50°15' W 001°30'2613.7
2017-Jul-08 22:44N 50°21' W 000°51'311.6
2017-Jul-08 22:30N 50°22' W 000°47'611.2
2017-Jul-08 22:00N 50°23' W 000°38'510.8
2017-Jul-08 21:30N 50°25' W 000°30'510.7
2017-Jul-08 21:00N 50°26' W 000°22'510.5
2017-Jul-08 20:30N 50°28' W 000°14'510.8
2017-Jul-08 20:00N 50°29' W 000°06'510.9
2017-Jul-08 19:30N 50°30' E 000°02'611.4
2017-Jul-08 19:00N 50°32' E 000°11'611.9
2017-Jul-08 18:30N 50°34' E 000°20'712.7
2017-Jul-08 18:00N 50°36' E 000°30'713.4
2017-Jul-08 17:30N 50°39' E 000°39'713.7
2017-Jul-08 17:00N 50°42' E 000°48'714.0
2017-Jul-08 16:31N 50°47' E 000°57'813.9
2017-Jul-08 15:58N 50°51' E 001°06'613.2
2017-Jul-08 15:30N 50°55' E 001°13'713.2
2017-Jul-08 15:00N 51°00' E 001°20'1212.0
2017-Jul-08 14:00N 51°08' E 001°35'611.1
2017-Jul-08 13:31N 51°12' E 001°41'510.9
2017-Jul-08 13:00N 51°16' E 001°47'611.1
2017-Jul-08 12:30N 51°20' E 001°52'611.2
2017-Jul-08 12:01N 51°24' E 001°58'510.6
2017-Jul-08 11:30N 51°24' E 002°07'612.0
2017-Jul-08 11:00N 51°21' E 002°15'611.2
2017-Jul-08 10:30N 51°21' E 002°24'611.7
2017-Jul-08 10:00N 51°23' E 002°33'612.1
2017-Jul-08 09:30N 51°23' E 002°43'612.2
2017-Jul-08 09:00N 51°25' E 002°52'612.9
2017-Jul-08 08:30N 51°25' E 003°02'612.5
2017-Jul-08 08:00N 51°24' E 003°12'612.4
2017-Jul-08 07:30N 51°25' E 003°22'612.3
2017-Jul-08 07:00N 51°25' E 003°32'610.9
2017-Jul-08 06:30N 51°26' E 003°41'612.1
2017-Jul-08 06:00N 51°22' E 003°47'612.0
2017-Jul-08 05:30N 51°23' E 003°56'4 8.5
2017-Jul-08 05:00N 51°25' E 004°02'510.4
2017-Jul-08 04:30N 51°23' E 004°09'4 8.5
2017-Jul-08 04:00N 51°21' E 004°16'1 2.2
2017-Jul-08 03:30N 51°21' E 004°17'0 0.0
2017-Jul-08 03:01N 51°21' E 004°17'0 0.0
2017-Jul-08 02:30N 51°21' E 004°17'1 1.0
2017-Jul-08 02:00N 51°20' E 004°18'1 1.8
2017-Jul-08 01:30N 51°20' E 004°18'0 0.0
2017-Jul-07 09:18N 51°20' E 004°18'0 0.9
2017-Jul-07 09:01N 51°20' E 004°19'2 4.4
2017-Jul-07 08:30N 51°18' E 004°20'  
Track history (hours):
 
Tides and Currents Weather Stations Pressure Air Temp Water Temp Dewpoint Dewpoint Depression Visibility Wind Speed Wind Dir Waves Ship Positions

Maribel

Last reported at 2017-Jul-15 21:08 UTC. Time now 2017-Jul-21 20:41 UTC.
Position N 19°23' W 018°18'.

Length 229 m; draft 12.5 m.

Type: Tanker. MMSI: 257872000.

Date/timePositionNaut miles runAvg speedWind from/ knotsBaromVisibWave heightAir tempDewpointWater temp
2017-Jul-15 21:08N 19°23' W 018°18'212.5
2017-Jul-15 20:58N 19°25' W 018°18'41312.1
2017-Jul-14 10:54N 25°59' W 016°05'2011.8
2017-Jul-14 09:11N 26°18' W 015°56'212.0
2017-Jul-14 09:00N 26°20' W 015°55'1212.1
2017-Jul-14 08:01N 26°31' W 015°49'512.4
2017-Jul-14 07:34N 26°36' W 015°47'1412.5
2017-Jul-14 06:26N 26°48' W 015°40'712.5
2017-Jul-14 05:53N 26°55' W 015°37'512.6
2017-Jul-14 05:28N 26°59' W 015°34'612.9
2017-Jul-14 05:00N 27°05' W 015°31'713.0
2017-Jul-14 04:30N 27°11' W 015°28'713.0
2017-Jul-14 04:00N 27°17' W 015°25'613.1
2017-Jul-14 03:30N 27°23' W 015°22'1213.4
2017-Jul-14 02:38N 27°33' W 015°17'213.3
2017-Jul-14 02:30N 27°35' W 015°16'713.2
2017-Jul-14 02:00N 27°41' W 015°13'713.3
2017-Jul-14 01:30N 27°47' W 015°10'713.2
2017-Jul-14 01:00N 27°53' W 015°07'613.0
2017-Jul-14 00:30N 27°59' W 015°04'612.9
2017-Jul-14 00:00N 28°05' W 015°01'612.8
2017-Jul-13 23:30N 28°11' W 014°59'612.7
2017-Jul-13 23:00N 28°17' W 014°57'612.7
2017-Jul-13 22:30N 28°23' W 014°55'612.8
2017-Jul-13 22:00N 28°29' W 014°53'612.9
2017-Jul-13 21:30N 28°36' W 014°52'712.7
2017-Jul-13 20:55N 28°43' W 014°49'512.6
2017-Jul-13 20:30N 28°48' W 014°48'612.5
2017-Jul-13 20:00N 28°54' W 014°46'612.4
2017-Jul-13 19:30N 28°60' W 014°44'612.5
2017-Jul-13 19:00N 29°06' W 014°43'612.2
2017-Jul-13 18:30N 29°12' W 014°41'611.9
2017-Jul-13 18:00N 29°18' W 014°39'611.8
2017-Jul-13 17:30N 29°23' W 014°38'611.8
2017-Jul-13 17:00N 29°29' W 014°36'612.0
2017-Jul-13 16:30N 29°35' W 014°35'612.1
2017-Jul-13 16:00N 29°41' W 014°33'712.2
2017-Jul-13 15:27N 29°48' W 014°31'712.4
2017-Jul-13 14:55N 29°54' W 014°30'512.4
2017-Jul-13 14:29N 29°59' W 014°28'612.4
2017-Jul-13 13:59N 30°05' W 014°26'5012.5
2017-Jul-13 10:00N 30°54' W 014°13'1112.4
2017-Jul-13 09:08N 31°04' W 014°10'212.6
2017-Jul-13 08:57N 31°06' W 014°10'612.6
2017-Jul-13 08:30N 31°12' W 014°08'1012.4
2017-Jul-13 07:42N 31°22' W 014°05'212.5
2017-Jul-13 07:30N 31°24' W 014°05'612.5
2017-Jul-13 07:00N 31°30' W 014°03'1112.4
2017-Jul-13 06:07N 31°41' W 014°00'312.6
2017-Jul-13 05:55N 31°43' W 013°59'512.6
2017-Jul-13 05:30N 31°48' W 013°58'712.6
2017-Jul-13 04:57N 31°55' W 013°56'712.7
2017-Jul-13 04:25N 32°02' W 013°55'612.5
2017-Jul-13 03:56N 32°08' W 013°53'512.5
2017-Jul-13 03:30N 32°13' W 013°52'712.6
2017-Jul-13 02:59N 32°19' W 013°50'812.7
2017-Jul-13 02:20N 32°27' W 013°48'612.8
2017-Jul-13 01:55N 32°32' W 013°46'512.7
2017-Jul-13 01:30N 32°37' W 013°45'612.8
2017-Jul-13 01:00N 32°44' W 013°43'1312.8
2017-Jul-13 00:00N 32°56' W 013°39'612.8
2017-Jul-12 23:30N 33°02' W 013°38'712.7
2017-Jul-12 22:58N 33°09' W 013°36'1212.5
2017-Jul-12 22:01N 33°20' W 013°32'012.2
2017-Jul-12 22:00N 33°21' W 013°32'612.6
2017-Jul-12 21:30N 33°27' W 013°30'612.6
2017-Jul-12 21:00N 33°33' W 013°28'612.5
2017-Jul-12 20:30N 33°39' W 013°27'712.6
2017-Jul-12 19:56N 33°46' W 013°25'712.5
2017-Jul-12 19:24N 33°52' W 013°23'712.5
2017-Jul-12 18:52N 33°59' W 013°21'512.6
2017-Jul-12 18:28N 34°04' W 013°20'612.5
2017-Jul-12 18:00N 34°09' W 013°18'712.4
2017-Jul-12 17:28N 34°16' W 013°16'612.5
2017-Jul-12 17:00N 34°22' W 013°15'712.6
2017-Jul-12 16:29N 34°28' W 013°13'612.7
2017-Jul-12 15:59N 34°34' W 013°11'612.6
2017-Jul-12 15:29N 34°40' W 013°09'712.6
2017-Jul-12 14:58N 34°47' W 013°08'1312.6
2017-Jul-12 13:55N 34°59' W 013°04'512.5
2017-Jul-12 13:29N 35°05' W 013°02'1512.3
2017-Jul-12 12:17N 35°19' W 012°58'512.8
2017-Jul-12 11:55N 35°24' W 012°57'512.9
2017-Jul-12 11:30N 35°29' W 012°55'612.8
2017-Jul-12 10:59N 35°35' W 012°53'712.7
2017-Jul-12 10:27N 35°42' W 012°51'612.8
2017-Jul-12 09:59N 35°48' W 012°49'16712.9
2017-Jul-11 20:59N 38°30' W 012°01'812.6
2017-Jul-11 20:19N 38°39' W 011°58'412.6
2017-Jul-11 20:00N 38°42' W 011°57'612.8
2017-Jul-11 19:30N 38°49' W 011°55'712.9
2017-Jul-11 18:59N 38°55' W 011°53'613.0
2017-Jul-11 18:30N 39°01' W 011°51'1013.3
2017-Jul-11 17:45N 39°11' W 011°49'313.1
2017-Jul-11 17:30N 39°14' W 011°48'712.7
2017-Jul-11 16:59N 39°21' W 011°46'612.7
2017-Jul-11 16:30N 39°26' W 011°44'812.7
2017-Jul-11 15:50N 39°35' W 011°41'412.7
2017-Jul-11 15:30N 39°39' W 011°40'712.7
2017-Jul-11 15:00N 39°45' W 011°38'6012.8
2017-Jul-11 10:18N 40°44' W 011°20'1412.9
2017-Jul-11 09:13N 40°57' W 011°16'50712.6
2017-Jul-09 16:52N 48°33' W 006°03'412.0
2017-Jul-09 16:30N 48°37' W 006°01'611.8
2017-Jul-09 15:59N 48°42' W 005°56'611.8
2017-Jul-09 15:29N 48°47' W 005°52'611.6
2017-Jul-09 15:00N 48°52' W 005°49'611.3
2017-Jul-09 14:30N 48°57' W 005°43'611.7
2017-Jul-09 13:59N 48°60' W 005°35'612.2
2017-Jul-09 13:30N 49°03' W 005°28'612.0
2017-Jul-09 12:58N 49°07' W 005°19'711.8
2017-Jul-09 12:23N 49°11' W 005°11'512.8
2017-Jul-09 12:00N 49°13' W 005°05'713.8
2017-Jul-09 11:30N 49°17' W 004°56'814.0
2017-Jul-09 10:57N 49°21' W 004°45'614.1
2017-Jul-09 10:30N 49°24' W 004°37'913.8
2017-Jul-09 09:50N 49°28' W 004°24'513.5
2017-Jul-09 09:26N 49°31' W 004°17'613.3
2017-Jul-09 08:58N 49°34' W 004°09'612.8
2017-Jul-09 08:30N 49°37' W 004°01'612.4
2017-Jul-09 08:00N 49°40' W 003°53'612.0
2017-Jul-09 07:30N 49°43' W 003°44'611.6
2017-Jul-09 07:00N 49°46' W 003°37'611.3
2017-Jul-09 06:30N 49°48' W 003°29'611.2
2017-Jul-09 06:00N 49°51' W 003°21'611.4
2017-Jul-09 05:30N 49°53' W 003°13'611.9
2017-Jul-09 05:00N 49°56' W 003°05'612.5
2017-Jul-09 04:30N 49°58' W 002°56'612.8
2017-Jul-09 04:00N 49°60' W 002°46'713.5
2017-Jul-09 03:31N 50°02' W 002°36'714.3
2017-Jul-09 03:01N 50°04' W 002°26'815.1
2017-Jul-09 02:30N 50°06' W 002°14'815.7
2017-Jul-09 02:00N 50°09' W 002°03'815.9
2017-Jul-09 01:30N 50°11' W 001°51'1415.6
2017-Jul-09 00:37N 50°15' W 001°30'2613.7
2017-Jul-08 22:44N 50°21' W 000°51'311.6
2017-Jul-08 22:30N 50°22' W 000°47'611.2
2017-Jul-08 22:00N 50°23' W 000°38'510.8
2017-Jul-08 21:30N 50°25' W 000°30'510.7
2017-Jul-08 21:00N 50°26' W 000°22'510.5
2017-Jul-08 20:30N 50°28' W 000°14'510.8
2017-Jul-08 20:00N 50°29' W 000°06'510.9
2017-Jul-08 19:30N 50°30' E 000°02'611.4
2017-Jul-08 19:00N 50°32' E 000°11'611.9
2017-Jul-08 18:30N 50°34' E 000°20'712.7
2017-Jul-08 18:00N 50°36' E 000°30'713.4
2017-Jul-08 17:30N 50°39' E 000°39'713.7
2017-Jul-08 17:00N 50°42' E 000°48'714.0
2017-Jul-08 16:31N 50°47' E 000°57'813.9
2017-Jul-08 15:58N 50°51' E 001°06'613.2
2017-Jul-08 15:30N 50°55' E 001°13'713.2
2017-Jul-08 15:00N 51°00' E 001°20'1212.0
2017-Jul-08 14:00N 51°08' E 001°35'611.1
2017-Jul-08 13:31N 51°12' E 001°41'510.9
2017-Jul-08 13:00N 51°16' E 001°47'611.1
2017-Jul-08 12:30N 51°20' E 001°52'611.2
2017-Jul-08 12:01N 51°24' E 001°58'510.6
2017-Jul-08 11:30N 51°24' E 002°07'612.0
2017-Jul-08 11:00N 51°21' E 002°15'611.2
2017-Jul-08 10:30N 51°21' E 002°24'611.7
2017-Jul-08 10:00N 51°23' E 002°33'612.1
2017-Jul-08 09:30N 51°23' E 002°43'612.2
2017-Jul-08 09:00N 51°25' E 002°52'612.9
2017-Jul-08 08:30N 51°25' E 003°02'612.5
2017-Jul-08 08:00N 51°24' E 003°12'612.4
2017-Jul-08 07:30N 51°25' E 003°22'612.3
2017-Jul-08 07:00N 51°25' E 003°32'610.9
2017-Jul-08 06:30N 51°26' E 003°41'612.1
2017-Jul-08 06:00N 51°22' E 003°47'612.0
2017-Jul-08 05:30N 51°23' E 003°56'4 8.5
2017-Jul-08 05:00N 51°25' E 004°02'510.4
2017-Jul-08 04:30N 51°23' E 004°09'4 8.5
2017-Jul-08 04:00N 51°21' E 004°16'1 2.2
2017-Jul-08 03:30N 51°21' E 004°17'0 0.0
2017-Jul-08 03:01N 51°21' E 004°17'0 0.0
2017-Jul-08 02:30N 51°21' E 004°17'1 1.0
2017-Jul-08 02:00N 51°20' E 004°18'1 1.8
2017-Jul-08 01:30N 51°20' E 004°18'0 0.0
2017-Jul-07 09:18N 51°20' E 004°18'0 0.9
2017-Jul-07 09:01N 51°20' E 004°19'2 4.4
2017-Jul-07 08:30N 51°18' E 004°20'  

Dump ship's entire track history